sensor_id;sensor_type;location;lat;lon;timestamp;P1;durP1;ratioP1;P2;durP2;ratioP2
59530;SDS011;45349;48.692;8.186;2024-03-22T00:01:52;8.70;;;4.33;;
59530;SDS011;45349;48.692;8.186;2024-03-22T00:04:20;6.73;;;4.03;;
59530;SDS011;45349;48.692;8.186;2024-03-22T00:06:47;7.43;;;4.70;;
59530;SDS011;45349;48.692;8.186;2024-03-22T00:09:15;7.43;;;3.93;;
59530;SDS011;45349;48.692;8.186;2024-03-22T00:11:42;4.93;;;3.77;;
59530;SDS011;45349;48.692;8.186;2024-03-22T00:14:09;9.70;;;3.90;;
59530;SDS011;45349;48.692;8.186;2024-03-22T00:16:37;7.00;;;4.10;;
59530;SDS011;45349;48.692;8.186;2024-03-22T00:19:04;10.27;;;3.97;;
59530;SDS011;45349;48.692;8.186;2024-03-22T00:21:29;8.33;;;3.97;;
59530;SDS011;45349;48.692;8.186;2024-03-22T00:23:56;9.73;;;4.10;;
59530;SDS011;45349;48.692;8.186;2024-03-22T00:26:22;5.83;;;4.90;;
59530;SDS011;45349;48.692;8.186;2024-03-22T00:28:49;5.13;;;3.77;;
59530;SDS011;45349;48.692;8.186;2024-03-22T00:31:14;8.97;;;4.47;;
59530;SDS011;45349;48.692;8.186;2024-03-22T00:33:43;6.23;;;4.10;;
59530;SDS011;45349;48.692;8.186;2024-03-22T00:36:09;7.47;;;5.07;;
59530;SDS011;45349;48.692;8.186;2024-03-22T00:38:36;6.67;;;4.40;;
59530;SDS011;45349;48.692;8.186;2024-03-22T00:41:02;7.10;;;4.50;;
59530;SDS011;45349;48.692;8.186;2024-03-22T00:43:29;7.13;;;4.20;;
59530;SDS011;45349;48.692;8.186;2024-03-22T00:45:54;6.37;;;3.87;;
59530;SDS011;45349;48.692;8.186;2024-03-22T00:48:21;7.00;;;3.97;;
59530;SDS011;45349;48.692;8.186;2024-03-22T00:50:48;5.10;;;3.67;;
59530;SDS011;45349;48.692;8.186;2024-03-22T00:53:15;5.87;;;3.77;;
59530;SDS011;45349;48.692;8.186;2024-03-22T00:55:41;4.93;;;3.70;;
59530;SDS011;45349;48.692;8.186;2024-03-22T00:58:08;5.07;;;3.80;;
59530;SDS011;45349;48.692;8.186;2024-03-22T01:00:34;4.83;;;3.03;;
59530;SDS011;45349;48.692;8.186;2024-03-22T01:03:02;4.80;;;2.90;;
59530;SDS011;45349;48.692;8.186;2024-03-22T01:05:30;9.70;;;3.57;;
59530;SDS011;45349;48.692;8.186;2024-03-22T01:08:00;7.37;;;3.37;;
59530;SDS011;45349;48.692;8.186;2024-03-22T01:10:25;5.53;;;3.70;;
59530;SDS011;45349;48.692;8.186;2024-03-22T01:12:52;4.93;;;3.27;;
59530;SDS011;45349;48.692;8.186;2024-03-22T01:15:18;7.97;;;3.17;;
59530;SDS011;45349;48.692;8.186;2024-03-22T01:17:44;5.13;;;3.30;;
59530;SDS011;45349;48.692;8.186;2024-03-22T01:20:10;4.47;;;3.20;;
59530;SDS011;45349;48.692;8.186;2024-03-22T01:22:37;6.23;;;2.53;;
59530;SDS011;45349;48.692;8.186;2024-03-22T01:25:04;5.80;;;2.70;;
59530;SDS011;45349;48.692;8.186;2024-03-22T01:27:31;6.33;;;2.57;;
59530;SDS011;45349;48.692;8.186;2024-03-22T01:29:57;3.70;;;2.70;;
59530;SDS011;45349;48.692;8.186;2024-03-22T01:32:23;4.37;;;2.10;;
59530;SDS011;45349;48.692;8.186;2024-03-22T01:34:49;5.23;;;2.47;;
59530;SDS011;45349;48.692;8.186;2024-03-22T01:37:16;2.83;;;1.83;;
59530;SDS011;45349;48.692;8.186;2024-03-22T01:39:41;2.10;;;1.70;;
59530;SDS011;45349;48.692;8.186;2024-03-22T01:42:09;2.30;;;1.70;;
59530;SDS011;45349;48.692;8.186;2024-03-22T01:44:35;3.47;;;1.77;;
59530;SDS011;45349;48.692;8.186;2024-03-22T01:47:02;3.40;;;1.43;;
59530;SDS011;45349;48.692;8.186;2024-03-22T01:49:28;2.07;;;1.47;;
59530;SDS011;45349;48.692;8.186;2024-03-22T01:51:56;3.40;;;1.60;;
59530;SDS011;45349;48.692;8.186;2024-03-22T01:54:22;2.10;;;1.47;;
59530;SDS011;45349;48.692;8.186;2024-03-22T01:56:49;4.43;;;1.50;;
59530;SDS011;45349;48.692;8.186;2024-03-22T01:59:16;1.83;;;1.37;;
59530;SDS011;45349;48.692;8.186;2024-03-22T02:01:44;1.67;;;1.20;;
59530;SDS011;45349;48.692;8.186;2024-03-22T02:04:10;1.80;;;1.47;;
59530;SDS011;45349;48.692;8.186;2024-03-22T02:06:36;3.20;;;1.37;;
59530;SDS011;45349;48.692;8.186;2024-03-22T02:09:02;1.87;;;1.40;;
59530;SDS011;45349;48.692;8.186;2024-03-22T02:11:29;3.23;;;1.70;;
59530;SDS011;45349;48.692;8.186;2024-03-22T02:13:55;6.00;;;1.40;;
59530;SDS011;45349;48.692;8.186;2024-03-22T02:16:23;5.33;;;1.73;;
59530;SDS011;45349;48.692;8.186;2024-03-22T02:18:49;2.70;;;1.40;;
59530;SDS011;45349;48.692;8.186;2024-03-22T02:21:16;3.27;;;1.80;;
59530;SDS011;45349;48.692;8.186;2024-03-22T02:23:43;3.63;;;1.93;;
59530;SDS011;45349;48.692;8.186;2024-03-22T02:26:10;4.53;;;1.60;;
59530;SDS011;45349;48.692;8.186;2024-03-22T02:28:35;3.57;;;1.57;;
59530;SDS011;45349;48.692;8.186;2024-03-22T02:31:02;2.27;;;1.50;;
59530;SDS011;45349;48.692;8.186;2024-03-22T02:33:28;3.43;;;1.80;;
59530;SDS011;45349;48.692;8.186;2024-03-22T02:35:56;2.43;;;1.80;;
59530;SDS011;45349;48.692;8.186;2024-03-22T02:38:21;2.20;;;1.60;;
59530;SDS011;45349;48.692;8.186;2024-03-22T02:40:51;2.40;;;1.70;;
59530;SDS011;45349;48.692;8.186;2024-03-22T02:43:17;3.33;;;1.80;;
59530;SDS011;45349;48.692;8.186;2024-03-22T02:45:46;3.80;;;1.70;;
59530;SDS011;45349;48.692;8.186;2024-03-22T02:48:12;3.20;;;1.60;;
59530;SDS011;45349;48.692;8.186;2024-03-22T02:50:39;5.87;;;2.37;;
59530;SDS011;45349;48.692;8.186;2024-03-22T02:53:04;2.40;;;1.70;;
59530;SDS011;45349;48.692;8.186;2024-03-22T02:55:35;4.27;;;1.90;;
59530;SDS011;45349;48.692;8.186;2024-03-22T02:58:03;2.57;;;1.57;;
59530;SDS011;45349;48.692;8.186;2024-03-22T03:00:30;3.20;;;1.30;;
59530;SDS011;45349;48.692;8.186;2024-03-22T03:02:56;2.60;;;1.50;;
59530;SDS011;45349;48.692;8.186;2024-03-22T03:05:22;4.43;;;1.80;;
59530;SDS011;45349;48.692;8.186;2024-03-22T03:07:48;3.53;;;1.97;;
59530;SDS011;45349;48.692;8.186;2024-03-22T03:10:15;2.63;;;1.77;;
59530;SDS011;45349;48.692;8.186;2024-03-22T03:12:41;6.50;;;2.10;;
59530;SDS011;45349;48.692;8.186;2024-03-22T03:15:09;3.77;;;1.63;;
59530;SDS011;45349;48.692;8.186;2024-03-22T03:17:35;4.40;;;1.97;;
59530;SDS011;45349;48.692;8.186;2024-03-22T03:20:01;4.33;;;2.00;;
59530;SDS011;45349;48.692;8.186;2024-03-22T03:22:30;3.73;;;2.17;;
59530;SDS011;45349;48.692;8.186;2024-03-22T03:24:58;4.93;;;2.30;;
59530;SDS011;45349;48.692;8.186;2024-03-22T03:27:23;3.07;;;2.40;;
59530;SDS011;45349;48.692;8.186;2024-03-22T03:29:50;4.93;;;2.37;;
59530;SDS011;45349;48.692;8.186;2024-03-22T03:32:17;6.07;;;2.30;;
59530;SDS011;45349;48.692;8.186;2024-03-22T03:34:44;9.43;;;3.47;;
59530;SDS011;45349;48.692;8.186;2024-03-22T03:37:09;4.10;;;2.47;;
59530;SDS011;45349;48.692;8.186;2024-03-22T03:39:36;5.37;;;2.50;;
59530;SDS011;45349;48.692;8.186;2024-03-22T03:42:02;3.50;;;2.30;;
59530;SDS011;45349;48.692;8.186;2024-03-22T03:44:28;3.77;;;2.20;;
59530;SDS011;45349;48.692;8.186;2024-03-22T03:46:54;3.37;;;2.60;;
59530;SDS011;45349;48.692;8.186;2024-03-22T03:49:22;6.00;;;2.57;;
59530;SDS011;45349;48.692;8.186;2024-03-22T03:51:48;7.63;;;3.17;;
59530;SDS011;45349;48.692;8.186;2024-03-22T03:54:14;4.10;;;2.27;;
59530;SDS011;45349;48.692;8.186;2024-03-22T03:56:40;4.47;;;2.47;;
59530;SDS011;45349;48.692;8.186;2024-03-22T03:59:07;5.70;;;2.50;;
59530;SDS011;45349;48.692;8.186;2024-03-22T04:04:14;3.00;;;2.33;;
59530;SDS011;45349;48.692;8.186;2024-03-22T04:06:43;10.53;;;2.73;;
59530;SDS011;45349;48.692;8.186;2024-03-22T04:09:09;5.17;;;3.20;;
59530;SDS011;45349;48.692;8.186;2024-03-22T04:11:35;5.73;;;2.93;;
59530;SDS011;45349;48.692;8.186;2024-03-22T04:14:02;5.03;;;2.90;;
59530;SDS011;45349;48.692;8.186;2024-03-22T04:16:29;5.73;;;2.90;;
59530;SDS011;45349;48.692;8.186;2024-03-22T04:18:54;5.13;;;3.00;;
59530;SDS011;45349;48.692;8.186;2024-03-22T04:21:21;5.60;;;2.70;;
59530;SDS011;45349;48.692;8.186;2024-03-22T04:23:48;6.20;;;3.00;;
59530;SDS011;45349;48.692;8.186;2024-03-22T04:26:15;4.37;;;3.07;;
59530;SDS011;45349;48.692;8.186;2024-03-22T04:28:41;4.33;;;2.70;;
59530;SDS011;45349;48.692;8.186;2024-03-22T04:31:08;4.30;;;3.00;;
59530;SDS011;45349;48.692;8.186;2024-03-22T04:33:34;4.67;;;2.90;;
59530;SDS011;45349;48.692;8.186;2024-03-22T04:36:02;5.07;;;3.00;;
59530;SDS011;45349;48.692;8.186;2024-03-22T04:38:29;6.90;;;3.07;;
59530;SDS011;45349;48.692;8.186;2024-03-22T04:40:57;4.90;;;2.50;;
59530;SDS011;45349;48.692;8.186;2024-03-22T04:43:23;6.37;;;2.93;;
59530;SDS011;45349;48.692;8.186;2024-03-22T04:45:50;4.77;;;3.23;;
59530;SDS011;45349;48.692;8.186;2024-03-22T04:48:17;4.17;;;3.20;;
59530;SDS011;45349;48.692;8.186;2024-03-22T04:50:45;6.30;;;3.70;;
59530;SDS011;45349;48.692;8.186;2024-03-22T04:53:12;4.47;;;3.30;;
59530;SDS011;45349;48.692;8.186;2024-03-22T04:55:38;6.20;;;3.97;;
59530;SDS011;45349;48.692;8.186;2024-03-22T04:58:11;6.30;;;3.97;;
59530;SDS011;45349;48.692;8.186;2024-03-22T05:00:37;6.00;;;4.57;;
59530;SDS011;45349;48.692;8.186;2024-03-22T05:03:04;6.67;;;4.40;;
59530;SDS011;45349;48.692;8.186;2024-03-22T05:05:30;7.13;;;4.10;;
59530;SDS011;45349;48.692;8.186;2024-03-22T05:07:56;12.03;;;5.80;;
59530;SDS011;45349;48.692;8.186;2024-03-22T05:10:22;7.87;;;4.43;;
59530;SDS011;45349;48.692;8.186;2024-03-22T05:12:49;8.67;;;5.07;;
59530;SDS011;45349;48.692;8.186;2024-03-22T05:15:16;8.17;;;5.60;;
59530;SDS011;45349;48.692;8.186;2024-03-22T05:17:42;12.13;;;5.20;;
59530;SDS011;45349;48.692;8.186;2024-03-22T05:20:08;11.33;;;5.73;;
59530;SDS011;45349;48.692;8.186;2024-03-22T05:22:36;10.00;;;5.10;;
59530;SDS011;45349;48.692;8.186;2024-03-22T05:25:02;8.67;;;4.97;;
59530;SDS011;45349;48.692;8.186;2024-03-22T05:27:30;7.10;;;4.13;;
59530;SDS011;45349;48.692;8.186;2024-03-22T05:29:56;6.83;;;4.80;;
59530;SDS011;45349;48.692;8.186;2024-03-22T05:32:24;8.20;;;4.97;;
59530;SDS011;45349;48.692;8.186;2024-03-22T05:34:49;11.33;;;8.03;;
59530;SDS011;45349;48.692;8.186;2024-03-22T05:37:16;13.17;;;8.37;;
59530;SDS011;45349;48.692;8.186;2024-03-22T05:39:42;8.53;;;5.50;;
59530;SDS011;45349;48.692;8.186;2024-03-22T05:42:09;7.53;;;5.10;;
59530;SDS011;45349;48.692;8.186;2024-03-22T05:44:34;10.47;;;5.77;;
59530;SDS011;45349;48.692;8.186;2024-03-22T05:47:01;11.90;;;6.30;;
59530;SDS011;45349;48.692;8.186;2024-03-22T05:49:28;8.63;;;5.90;;
59530;SDS011;45349;48.692;8.186;2024-03-22T05:51:55;8.50;;;5.93;;
59530;SDS011;45349;48.692;8.186;2024-03-22T05:54:21;11.37;;;7.23;;
59530;SDS011;45349;48.692;8.186;2024-03-22T05:56:47;10.03;;;7.43;;
59530;SDS011;45349;48.692;8.186;2024-03-22T05:59:13;8.30;;;5.93;;
59530;SDS011;45349;48.692;8.186;2024-03-22T06:01:40;11.60;;;6.07;;
59530;SDS011;45349;48.692;8.186;2024-03-22T06:04:05;9.63;;;5.87;;
59530;SDS011;45349;48.692;8.186;2024-03-22T06:06:34;9.93;;;6.10;;
59530;SDS011;45349;48.692;8.186;2024-03-22T06:08:59;10.47;;;7.17;;
59530;SDS011;45349;48.692;8.186;2024-03-22T06:11:28;13.97;;;7.90;;
59530;SDS011;45349;48.692;8.186;2024-03-22T06:13:54;13.77;;;6.63;;
59530;SDS011;45349;48.692;8.186;2024-03-22T06:16:21;8.20;;;5.73;;
59530;SDS011;45349;48.692;8.186;2024-03-22T06:18:46;9.47;;;5.73;;
59530;SDS011;45349;48.692;8.186;2024-03-22T06:21:14;9.63;;;5.57;;
59530;SDS011;45349;48.692;8.186;2024-03-22T06:23:41;8.23;;;5.50;;
59530;SDS011;45349;48.692;8.186;2024-03-22T06:26:08;9.87;;;6.37;;
59530;SDS011;45349;48.692;8.186;2024-03-22T06:28:33;8.43;;;5.37;;
59530;SDS011;45349;48.692;8.186;2024-03-22T06:31:01;9.30;;;5.40;;
59530;SDS011;45349;48.692;8.186;2024-03-22T06:33:28;8.87;;;5.33;;
59530;SDS011;45349;48.692;8.186;2024-03-22T06:35:55;6.77;;;5.13;;
59530;SDS011;45349;48.692;8.186;2024-03-22T06:38:20;13.27;;;7.50;;
59530;SDS011;45349;48.692;8.186;2024-03-22T06:40:48;12.43;;;6.90;;
59530;SDS011;45349;48.692;8.186;2024-03-22T06:43:14;9.67;;;6.17;;
59530;SDS011;45349;48.692;8.186;2024-03-22T06:45:40;8.60;;;5.40;;
59530;SDS011;45349;48.692;8.186;2024-03-22T06:48:06;12.47;;;9.07;;
59530;SDS011;45349;48.692;8.186;2024-03-22T06:50:33;8.97;;;6.70;;
59530;SDS011;45349;48.692;8.186;2024-03-22T06:52:58;13.20;;;7.07;;
59530;SDS011;45349;48.692;8.186;2024-03-22T06:55:25;10.40;;;7.53;;
59530;SDS011;45349;48.692;8.186;2024-03-22T06:57:52;18.03;;;10.70;;
59530;SDS011;45349;48.692;8.186;2024-03-22T07:00:19;18.53;;;13.90;;
59530;SDS011;45349;48.692;8.186;2024-03-22T07:02:44;13.70;;;7.27;;
59530;SDS011;45349;48.692;8.186;2024-03-22T07:05:11;12.93;;;6.27;;
59530;SDS011;45349;48.692;8.186;2024-03-22T07:07:37;8.47;;;5.60;;
59530;SDS011;45349;48.692;8.186;2024-03-22T07:10:04;8.70;;;5.30;;
59530;SDS011;45349;48.692;8.186;2024-03-22T07:12:31;9.33;;;5.07;;
59530;SDS011;45349;48.692;8.186;2024-03-22T07:15:00;9.50;;;5.47;;
59530;SDS011;45349;48.692;8.186;2024-03-22T07:17:26;11.30;;;6.03;;
59530;SDS011;45349;48.692;8.186;2024-03-22T07:19:53;8.17;;;4.93;;
59530;SDS011;45349;48.692;8.186;2024-03-22T07:22:19;6.83;;;5.17;;
59530;SDS011;45349;48.692;8.186;2024-03-22T07:24:46;10.57;;;5.13;;
59530;SDS011;45349;48.692;8.186;2024-03-22T07:27:12;8.37;;;5.30;;
59530;SDS011;45349;48.692;8.186;2024-03-22T07:29:40;9.73;;;5.67;;
59530;SDS011;45349;48.692;8.186;2024-03-22T07:32:07;10.40;;;5.27;;
59530;SDS011;45349;48.692;8.186;2024-03-22T07:34:34;11.07;;;5.00;;
59530;SDS011;45349;48.692;8.186;2024-03-22T07:36:59;10.53;;;5.43;;
59530;SDS011;45349;48.692;8.186;2024-03-22T07:39:26;11.47;;;5.53;;
59530;SDS011;45349;48.692;8.186;2024-03-22T07:41:51;10.40;;;5.40;;
59530;SDS011;45349;48.692;8.186;2024-03-22T07:44:18;11.00;;;5.87;;
59530;SDS011;45349;48.692;8.186;2024-03-22T07:46:45;10.27;;;5.60;;
59530;SDS011;45349;48.692;8.186;2024-03-22T07:49:13;8.47;;;5.47;;
59530;SDS011;45349;48.692;8.186;2024-03-22T07:51:38;7.97;;;4.90;;
59530;SDS011;45349;48.692;8.186;2024-03-22T07:54:05;11.13;;;6.10;;
59530;SDS011;45349;48.692;8.186;2024-03-22T07:56:31;8.93;;;4.90;;
59530;SDS011;45349;48.692;8.186;2024-03-22T07:58:57;7.17;;;4.37;;
59530;SDS011;45349;48.692;8.186;2024-03-22T08:01:23;11.80;;;6.77;;
59530;SDS011;45349;48.692;8.186;2024-03-22T08:03:50;11.70;;;6.50;;
59530;SDS011;45349;48.692;8.186;2024-03-22T08:06:18;10.13;;;6.77;;
59530;SDS011;45349;48.692;8.186;2024-03-22T08:08:44;13.90;;;6.87;;
59530;SDS011;45349;48.692;8.186;2024-03-22T08:11:10;10.63;;;6.57;;
59530;SDS011;45349;48.692;8.186;2024-03-22T08:13:37;9.37;;;6.70;;
59530;SDS011;45349;48.692;8.186;2024-03-22T08:16:03;11.60;;;7.43;;
59530;SDS011;45349;48.692;8.186;2024-03-22T08:18:31;15.33;;;7.80;;
59530;SDS011;45349;48.692;8.186;2024-03-22T08:20:57;12.57;;;8.20;;
59530;SDS011;45349;48.692;8.186;2024-03-22T08:23:25;12.97;;;8.17;;
59530;SDS011;45349;48.692;8.186;2024-03-22T08:25:51;13.77;;;8.10;;
59530;SDS011;45349;48.692;8.186;2024-03-22T08:28:18;13.57;;;8.50;;
59530;SDS011;45349;48.692;8.186;2024-03-22T08:30:44;14.57;;;8.07;;
59530;SDS011;45349;48.692;8.186;2024-03-22T08:33:11;12.63;;;8.27;;
59530;SDS011;45349;48.692;8.186;2024-03-22T08:35:36;11.73;;;7.77;;
59530;SDS011;45349;48.692;8.186;2024-03-22T08:38:03;11.27;;;7.43;;
59530;SDS011;45349;48.692;8.186;2024-03-22T08:40:32;10.10;;;7.27;;
59530;SDS011;45349;48.692;8.186;2024-03-22T08:42:59;11.30;;;7.80;;
59530;SDS011;45349;48.692;8.186;2024-03-22T08:45:24;10.90;;;6.53;;
59530;SDS011;45349;48.692;8.186;2024-03-22T08:47:51;12.47;;;6.53;;
59530;SDS011;45349;48.692;8.186;2024-03-22T08:50:17;10.60;;;7.43;;
59530;SDS011;45349;48.692;8.186;2024-03-22T08:52:44;9.70;;;7.30;;
59530;SDS011;45349;48.692;8.186;2024-03-22T08:55:09;10.37;;;7.00;;
59530;SDS011;45349;48.692;8.186;2024-03-22T08:57:37;12.40;;;7.33;;
59530;SDS011;45349;48.692;8.186;2024-03-22T09:00:04;14.87;;;7.70;;
59530;SDS011;45349;48.692;8.186;2024-03-22T09:02:33;12.10;;;7.17;;
59530;SDS011;45349;48.692;8.186;2024-03-22T09:04:59;10.37;;;6.97;;
59530;SDS011;45349;48.692;8.186;2024-03-22T09:07:26;11.47;;;7.47;;
59530;SDS011;45349;48.692;8.186;2024-03-22T09:09:52;13.63;;;7.60;;
59530;SDS011;45349;48.692;8.186;2024-03-22T09:12:18;13.20;;;7.73;;
59530;SDS011;45349;48.692;8.186;2024-03-22T09:14:46;12.03;;;6.77;;
59530;SDS011;45349;48.692;8.186;2024-03-22T09:17:12;11.17;;;6.93;;
59530;SDS011;45349;48.692;8.186;2024-03-22T09:19:38;11.23;;;6.17;;
59530;SDS011;45349;48.692;8.186;2024-03-22T09:22:04;8.63;;;5.73;;
59530;SDS011;45349;48.692;8.186;2024-03-22T09:24:31;10.83;;;6.50;;
59530;SDS011;45349;48.692;8.186;2024-03-22T09:26:57;14.50;;;6.93;;
59530;SDS011;45349;48.692;8.186;2024-03-22T09:29:24;9.17;;;6.37;;
59530;SDS011;45349;48.692;8.186;2024-03-22T09:31:52;11.37;;;6.80;;
59530;SDS011;45349;48.692;8.186;2024-03-22T09:34:17;10.07;;;6.80;;
59530;SDS011;45349;48.692;8.186;2024-03-22T09:36:45;9.43;;;6.60;;
59530;SDS011;45349;48.692;8.186;2024-03-22T09:39:10;11.60;;;6.03;;
59530;SDS011;45349;48.692;8.186;2024-03-22T09:41:39;12.00;;;6.40;;
59530;SDS011;45349;48.692;8.186;2024-03-22T09:44:08;11.63;;;5.80;;
59530;SDS011;45349;48.692;8.186;2024-03-22T09:46:40;8.37;;;5.27;;
59530;SDS011;45349;48.692;8.186;2024-03-22T09:49:09;7.80;;;5.17;;
59530;SDS011;45349;48.692;8.186;2024-03-22T09:51:37;6.83;;;5.13;;
59530;SDS011;45349;48.692;8.186;2024-03-22T09:54:03;6.77;;;4.77;;
59530;SDS011;45349;48.692;8.186;2024-03-22T09:56:30;9.47;;;5.77;;
59530;SDS011;45349;48.692;8.186;2024-03-22T09:58:56;8.87;;;4.73;;
59530;SDS011;45349;48.692;8.186;2024-03-22T10:01:23;8.77;;;5.13;;
59530;SDS011;45349;48.692;8.186;2024-03-22T10:03:49;8.73;;;5.50;;
59530;SDS011;45349;48.692;8.186;2024-03-22T10:06:19;9.03;;;5.50;;
59530;SDS011;45349;48.692;8.186;2024-03-22T10:08:44;9.50;;;6.03;;
59530;SDS011;45349;48.692;8.186;2024-03-22T10:11:11;11.05;;;5.50;;
59530;SDS011;45349;48.692;8.186;2024-03-22T10:13:37;11.40;;;5.53;;
59530;SDS011;45349;48.692;8.186;2024-03-22T10:16:05;8.63;;;5.73;;
59530;SDS011;45349;48.692;8.186;2024-03-22T10:18:32;11.23;;;5.13;;
59530;SDS011;45349;48.692;8.186;2024-03-22T10:20:59;7.20;;;5.43;;
59530;SDS011;45349;48.692;8.186;2024-03-22T10:23:27;10.83;;;6.30;;
59530;SDS011;45349;48.692;8.186;2024-03-22T10:25:55;12.07;;;6.47;;
59530;SDS011;45349;48.692;8.186;2024-03-22T10:28:21;12.73;;;6.63;;
59530;SDS011;45349;48.692;8.186;2024-03-22T10:30:50;10.43;;;6.07;;
59530;SDS011;45349;48.692;8.186;2024-03-22T10:33:16;9.00;;;5.40;;
59530;SDS011;45349;48.692;8.186;2024-03-22T10:35:45;10.93;;;5.03;;
59530;SDS011;45349;48.692;8.186;2024-03-22T10:38:11;8.50;;;4.90;;
59530;SDS011;45349;48.692;8.186;2024-03-22T10:40:41;11.03;;;5.30;;
59530;SDS011;45349;48.692;8.186;2024-03-22T10:43:10;8.20;;;5.03;;
59530;SDS011;45349;48.692;8.186;2024-03-22T10:45:37;9.93;;;4.27;;
59530;SDS011;45349;48.692;8.186;2024-03-22T10:48:04;9.30;;;4.53;;
59530;SDS011;45349;48.692;8.186;2024-03-22T10:50:35;12.17;;;4.67;;
59530;SDS011;45349;48.692;8.186;2024-03-22T10:53:25;8.80;;;4.10;;
59530;SDS011;45349;48.692;8.186;2024-03-22T10:56:05;8.17;;;4.77;;
59530;SDS011;45349;48.692;8.186;2024-03-22T10:58:34;7.03;;;4.00;;
59530;SDS011;45349;48.692;8.186;2024-03-22T11:01:05;9.07;;;3.40;;
59530;SDS011;45349;48.692;8.186;2024-03-22T11:03:35;7.37;;;3.33;;
59530;SDS011;45349;48.692;8.186;2024-03-22T11:06:00;6.33;;;3.63;;
59530;SDS011;45349;48.692;8.186;2024-03-22T11:08:27;7.57;;;3.93;;
59530;SDS011;45349;48.692;8.186;2024-03-22T11:10:57;9.93;;;4.20;;
59530;SDS011;45349;48.692;8.186;2024-03-22T11:13:25;6.63;;;3.67;;
59530;SDS011;45349;48.692;8.186;2024-03-22T11:15:50;4.90;;;3.73;;
59530;SDS011;45349;48.692;8.186;2024-03-22T11:18:17;7.70;;;3.70;;
59530;SDS011;45349;48.692;8.186;2024-03-22T11:20:43;7.10;;;3.80;;
59530;SDS011;45349;48.692;8.186;2024-03-22T11:23:11;5.37;;;3.93;;
59530;SDS011;45349;48.692;8.186;2024-03-22T11:25:38;6.13;;;3.30;;
59530;SDS011;45349;48.692;8.186;2024-03-22T11:28:05;7.17;;;3.23;;
59530;SDS011;45349;48.692;8.186;2024-03-22T11:30:33;7.77;;;3.40;;
59530;SDS011;45349;48.692;8.186;2024-03-22T11:33:00;8.00;;;3.37;;
59530;SDS011;45349;48.692;8.186;2024-03-22T11:35:27;5.23;;;2.83;;
59530;SDS011;45349;48.692;8.186;2024-03-22T11:37:53;6.13;;;3.23;;
59530;SDS011;45349;48.692;8.186;2024-03-22T11:40:19;4.33;;;2.93;;
59530;SDS011;45349;48.692;8.186;2024-03-22T11:42:47;6.37;;;3.03;;
59530;SDS011;45349;48.692;8.186;2024-03-22T11:45:14;6.03;;;3.10;;
59530;SDS011;45349;48.692;8.186;2024-03-22T11:47:45;5.17;;;2.73;;
59530;SDS011;45349;48.692;8.186;2024-03-22T11:50:12;6.13;;;2.67;;
59530;SDS011;45349;48.692;8.186;2024-03-22T11:52:40;4.10;;;2.70;;
59530;SDS011;45349;48.692;8.186;2024-03-22T11:55:07;4.47;;;2.13;;
59530;SDS011;45349;48.692;8.186;2024-03-22T11:57:33;4.20;;;2.27;;
59530;SDS011;45349;48.692;8.186;2024-03-22T12:00:00;2.90;;;2.23;;
59530;SDS011;45349;48.692;8.186;2024-03-22T12:02:37;2.83;;;2.03;;
59530;SDS011;45349;48.692;8.186;2024-03-22T12:05:05;3.10;;;2.00;;
59530;SDS011;45349;48.692;8.186;2024-03-22T12:07:31;3.63;;;2.33;;
59530;SDS011;45349;48.692;8.186;2024-03-22T12:09:58;4.03;;;2.30;;
59530;SDS011;45349;48.692;8.186;2024-03-22T12:12:24;7.80;;;3.17;;
59530;SDS011;45349;48.692;8.186;2024-03-22T12:14:52;6.30;;;2.70;;
59530;SDS011;45349;48.692;8.186;2024-03-22T12:17:17;7.47;;;3.50;;
59530;SDS011;45349;48.692;8.186;2024-03-22T12:19:44;4.50;;;2.67;;
59530;SDS011;45349;48.692;8.186;2024-03-22T12:22:11;4.23;;;2.87;;
59530;SDS011;45349;48.692;8.186;2024-03-22T12:24:38;5.87;;;3.00;;
59530;SDS011;45349;48.692;8.186;2024-03-22T12:27:04;5.43;;;2.83;;
59530;SDS011;45349;48.692;8.186;2024-03-22T12:29:31;5.07;;;2.70;;
59530;SDS011;45349;48.692;8.186;2024-03-22T12:31:57;5.30;;;3.10;;
59530;SDS011;45349;48.692;8.186;2024-03-22T12:34:26;6.33;;;2.70;;
59530;SDS011;45349;48.692;8.186;2024-03-22T12:36:52;5.03;;;2.70;;
59530;SDS011;45349;48.692;8.186;2024-03-22T12:39:19;8.03;;;3.03;;
59530;SDS011;45349;48.692;8.186;2024-03-22T12:41:46;7.60;;;2.77;;
59530;SDS011;45349;48.692;8.186;2024-03-22T12:44:12;5.07;;;3.07;;
59530;SDS011;45349;48.692;8.186;2024-03-22T12:46:38;5.27;;;3.10;;
59530;SDS011;45349;48.692;8.186;2024-03-22T12:49:07;7.40;;;3.37;;
59530;SDS011;45349;48.692;8.186;2024-03-22T12:51:34;9.03;;;3.13;;
59530;SDS011;45349;48.692;8.186;2024-03-22T12:54:01;4.57;;;2.70;;
59530;SDS011;45349;48.692;8.186;2024-03-22T12:56:29;4.80;;;3.03;;
59530;SDS011;45349;48.692;8.186;2024-03-22T12:58:55;6.63;;;3.10;;
59530;SDS011;45349;48.692;8.186;2024-03-22T13:01:22;3.77;;;2.67;;
59530;SDS011;45349;48.692;8.186;2024-03-22T13:03:47;4.60;;;2.80;;
59530;SDS011;45349;48.692;8.186;2024-03-22T13:06:14;4.67;;;2.50;;
59530;SDS011;45349;48.692;8.186;2024-03-22T13:08:40;4.43;;;2.60;;
59530;SDS011;45349;48.692;8.186;2024-03-22T13:11:07;5.17;;;2.60;;
59530;SDS011;45349;48.692;8.186;2024-03-22T13:13:35;5.53;;;3.00;;
59530;SDS011;45349;48.692;8.186;2024-03-22T13:16:02;8.43;;;3.90;;
59530;SDS011;45349;48.692;8.186;2024-03-22T13:18:28;4.67;;;3.00;;
59530;SDS011;45349;48.692;8.186;2024-03-22T13:20:55;4.73;;;3.40;;
59530;SDS011;45349;48.692;8.186;2024-03-22T13:23:21;4.70;;;3.07;;
59530;SDS011;45349;48.692;8.186;2024-03-22T13:25:48;3.73;;;2.50;;
59530;SDS011;45349;48.692;8.186;2024-03-22T13:28:14;5.27;;;3.03;;
59530;SDS011;45349;48.692;8.186;2024-03-22T13:30:46;6.33;;;3.20;;
59530;SDS011;45349;48.692;8.186;2024-03-22T13:33:12;4.07;;;2.73;;
59530;SDS011;45349;48.692;8.186;2024-03-22T13:35:39;4.30;;;3.00;;
59530;SDS011;45349;48.692;8.186;2024-03-22T13:38:06;5.70;;;3.20;;
59530;SDS011;45349;48.692;8.186;2024-03-22T13:40:38;3.70;;;2.40;;
59530;SDS011;45349;48.692;8.186;2024-03-22T13:43:05;5.43;;;2.60;;
59530;SDS011;45349;48.692;8.186;2024-03-22T13:45:32;5.37;;;2.93;;
59530;SDS011;45349;48.692;8.186;2024-03-22T13:47:59;7.57;;;3.20;;
59530;SDS011;45349;48.692;8.186;2024-03-22T13:50:27;5.70;;;2.63;;
59530;SDS011;45349;48.692;8.186;2024-03-22T13:52:53;6.00;;;2.63;;
59530;SDS011;45349;48.692;8.186;2024-03-22T13:55:19;4.33;;;2.60;;
59530;SDS011;45349;48.692;8.186;2024-03-22T13:57:45;6.73;;;4.93;;
59530;SDS011;45349;48.692;8.186;2024-03-22T14:00:12;5.90;;;3.67;;
59530;SDS011;45349;48.692;8.186;2024-03-22T14:02:39;6.77;;;3.90;;
59530;SDS011;45349;48.692;8.186;2024-03-22T14:05:07;9.17;;;5.20;;
59530;SDS011;45349;48.692;8.186;2024-03-22T14:07:33;7.40;;;4.90;;
59530;SDS011;45349;48.692;8.186;2024-03-22T14:10:00;8.13;;;4.30;;
59530;SDS011;45349;48.692;8.186;2024-03-22T14:12:26;4.67;;;3.60;;
59530;SDS011;45349;48.692;8.186;2024-03-22T14:14:52;5.23;;;3.40;;
59530;SDS011;45349;48.692;8.186;2024-03-22T14:17:18;7.00;;;3.40;;
59530;SDS011;45349;48.692;8.186;2024-03-22T14:19:44;7.83;;;3.07;;
59530;SDS011;45349;48.692;8.186;2024-03-22T14:22:12;3.97;;;3.00;;
59530;SDS011;45349;48.692;8.186;2024-03-22T14:24:38;5.23;;;2.73;;
59530;SDS011;45349;48.692;8.186;2024-03-22T14:27:04;4.97;;;2.77;;
59530;SDS011;45349;48.692;8.186;2024-03-22T14:29:31;6.97;;;3.70;;
59530;SDS011;45349;48.692;8.186;2024-03-22T14:31:57;6.20;;;4.07;;
59530;SDS011;45349;48.692;8.186;2024-03-22T14:34:24;7.40;;;3.70;;
59530;SDS011;45349;48.692;8.186;2024-03-22T14:36:49;7.97;;;3.47;;
59530;SDS011;45349;48.692;8.186;2024-03-22T14:39:17;5.43;;;3.67;;
59530;SDS011;45349;48.692;8.186;2024-03-22T14:41:43;7.23;;;3.27;;
59530;SDS011;45349;48.692;8.186;2024-03-22T14:44:10;6.20;;;3.50;;
59530;SDS011;45349;48.692;8.186;2024-03-22T14:46:35;6.20;;;3.30;;